sensor_id;sensor_type;location;lat;lon;timestamp;P1;durP1;ratioP1;P2;durP2;ratioP2
35590;SDS011;30355;50.556;10.012;2024-02-26T00:07:37;0.90;;;0.47;;
35590;SDS011;30355;50.556;10.012;2024-02-26T00:17:40;0.68;;;0.30;;
35590;SDS011;30355;50.556;10.012;2024-02-26T00:27:42;0.80;;;0.47;;
35590;SDS011;30355;50.556;10.012;2024-02-26T00:37:45;0.75;;;0.40;;
35590;SDS011;30355;50.556;10.012;2024-02-26T00:47:47;0.57;;;0.32;;
35590;SDS011;30355;50.556;10.012;2024-02-26T00:57:50;0.60;;;0.40;;
35590;SDS011;30355;50.556;10.012;2024-02-26T01:07:52;0.70;;;0.40;;
35590;SDS011;30355;50.556;10.012;2024-02-26T01:17:54;0.50;;;0.38;;
35590;SDS011;30355;50.556;10.012;2024-02-26T01:27:57;0.80;;;0.60;;
35590;SDS011;30355;50.556;10.012;2024-02-26T01:37:59;0.77;;;0.47;;
35590;SDS011;30355;50.556;10.012;2024-02-26T01:48:01;1.52;;;0.60;;
35590;SDS011;30355;50.556;10.012;2024-02-26T01:58:03;2.63;;;1.00;;
35590;SDS011;30355;50.556;10.012;2024-02-26T02:08:06;3.65;;;1.17;;
35590;SDS011;30355;50.556;10.012;2024-02-26T02:18:09;1.10;;;0.50;;
35590;SDS011;30355;50.556;10.012;2024-02-26T02:28:12;1.30;;;1.20;;
35590;SDS011;30355;50.556;10.012;2024-02-26T02:38:14;1.75;;;0.60;;
35590;SDS011;30355;50.556;10.012;2024-02-26T02:48:16;1.17;;;0.55;;
35590;SDS011;30355;50.556;10.012;2024-02-26T02:58:18;2.28;;;0.95;;
35590;SDS011;30355;50.556;10.012;2024-02-26T03:08:20;3.92;;;1.02;;
35590;SDS011;30355;50.556;10.012;2024-02-26T03:18:22;1.83;;;0.98;;
35590;SDS011;30355;50.556;10.012;2024-02-26T03:28:24;2.10;;;0.90;;
35590;SDS011;30355;50.556;10.012;2024-02-26T03:38:26;1.05;;;0.57;;
35590;SDS011;30355;50.556;10.012;2024-02-26T03:48:28;2.65;;;1.33;;
35590;SDS011;30355;50.556;10.012;2024-02-26T03:58:30;4.72;;;1.95;;
35590;SDS011;30355;50.556;10.012;2024-02-26T04:08:32;2.13;;;0.98;;
35590;SDS011;30355;50.556;10.012;2024-02-26T04:18:34;4.25;;;1.80;;
35590;SDS011;30355;50.556;10.012;2024-02-26T04:28:37;3.70;;;1.38;;
35590;SDS011;30355;50.556;10.012;2024-02-26T04:38:39;1.55;;;1.05;;
35590;SDS011;30355;50.556;10.012;2024-02-26T04:48:41;1.80;;;0.82;;
35590;SDS011;30355;50.556;10.012;2024-02-26T04:58:43;1.92;;;1.05;;
35590;SDS011;30355;50.556;10.012;2024-02-26T05:08:45;1.67;;;0.80;;
35590;SDS011;30355;50.556;10.012;2024-02-26T05:18:47;1.77;;;1.05;;
35590;SDS011;30355;50.556;10.012;2024-02-26T05:28:50;1.85;;;1.00;;
35590;SDS011;30355;50.556;10.012;2024-02-26T05:38:52;2.13;;;1.05;;
35590;SDS011;30355;50.556;10.012;2024-02-26T05:48:54;1.92;;;0.90;;
35590;SDS011;30355;50.556;10.012;2024-02-26T05:58:56;2.63;;;1.30;;
35590;SDS011;30355;50.556;10.012;2024-02-26T06:08:58;2.33;;;0.95;;
35590;SDS011;30355;50.556;10.012;2024-02-26T06:19:01;1.70;;;1.02;;
35590;SDS011;30355;50.556;10.012;2024-02-26T06:29:03;3.15;;;1.70;;
35590;SDS011;30355;50.556;10.012;2024-02-26T06:39:05;5.32;;;2.90;;
35590;SDS011;30355;50.556;10.012;2024-02-26T06:49:07;6.75;;;2.80;;
35590;SDS011;30355;50.556;10.012;2024-02-26T06:59:10;2.28;;;1.48;;
35590;SDS011;30355;50.556;10.012;2024-02-26T07:09:12;2.95;;;1.30;;
35590;SDS011;30355;50.556;10.012;2024-02-26T07:19:14;3.03;;;1.15;;
35590;SDS011;30355;50.556;10.012;2024-02-26T07:29:16;3.78;;;2.10;;
35590;SDS011;30355;50.556;10.012;2024-02-26T07:39:18;2.10;;;1.15;;
35590;SDS011;30355;50.556;10.012;2024-02-26T07:49:20;2.00;;;1.50;;
35590;SDS011;30355;50.556;10.012;2024-02-26T07:59:22;3.70;;;2.03;;
35590;SDS011;30355;50.556;10.012;2024-02-26T08:09:25;2.80;;;1.33;;
35590;SDS011;30355;50.556;10.012;2024-02-26T08:19:27;3.90;;;1.55;;
35590;SDS011;30355;50.556;10.012;2024-02-26T08:29:29;4.00;;;1.40;;
35590;SDS011;30355;50.556;10.012;2024-02-26T08:39:31;1.70;;;1.20;;
35590;SDS011;30355;50.556;10.012;2024-02-26T08:49:33;3.60;;;1.67;;
35590;SDS011;30355;50.556;10.012;2024-02-26T08:59:35;2.95;;;1.40;;
35590;SDS011;30355;50.556;10.012;2024-02-26T09:09:38;3.22;;;1.70;;
35590;SDS011;30355;50.556;10.012;2024-02-26T09:19:40;2.72;;;1.40;;
35590;SDS011;30355;50.556;10.012;2024-02-26T09:29:43;1.52;;;1.02;;
35590;SDS011;30355;50.556;10.012;2024-02-26T09:39:45;1.10;;;0.70;;
35590;SDS011;30355;50.556;10.012;2024-02-26T09:49:48;1.25;;;0.82;;
35590;SDS011;30355;50.556;10.012;2024-02-26T09:59:53;2.15;;;0.80;;
35590;SDS011;30355;50.556;10.012;2024-02-26T10:10:05;1.73;;;1.02;;
35590;SDS011;30355;50.556;10.012;2024-02-26T10:20:14;1.30;;;1.00;;
35590;SDS011;30355;50.556;10.012;2024-02-26T10:30:25;1.83;;;0.90;;
35590;SDS011;30355;50.556;10.012;2024-02-26T10:40:27;1.58;;;0.85;;
35590;SDS011;30355;50.556;10.012;2024-02-26T10:50:29;1.92;;;1.00;;
35590;SDS011;30355;50.556;10.012;2024-02-26T11:00:32;1.50;;;1.02;;
35590;SDS011;30355;50.556;10.012;2024-02-26T11:10:34;2.10;;;0.82;;
35590;SDS011;30355;50.556;10.012;2024-02-26T11:20:38;1.42;;;0.80;;
35590;SDS011;30355;50.556;10.012;2024-02-26T11:30:44;1.35;;;0.80;;
35590;SDS011;30355;50.556;10.012;2024-02-26T11:40:50;1.73;;;1.00;;
35590;SDS011;30355;50.556;10.012;2024-02-26T11:50:53;1.58;;;0.85;;
35590;SDS011;30355;50.556;10.012;2024-02-26T12:00:57;1.50;;;1.10;;
35590;SDS011;30355;50.556;10.012;2024-02-26T12:10:59;1.55;;;0.82;;
35590;SDS011;30355;50.556;10.012;2024-02-26T12:21:03;1.95;;;1.30;;
35590;SDS011;30355;50.556;10.012;2024-02-26T12:31:06;1.02;;;0.50;;
35590;SDS011;30355;50.556;10.012;2024-02-26T12:41:08;1.55;;;0.57;;
35590;SDS011;30355;50.556;10.012;2024-02-26T12:51:11;1.00;;;0.60;;
35590;SDS011;30355;50.556;10.012;2024-02-26T13:01:15;1.15;;;0.50;;
35590;SDS011;30355;50.556;10.012;2024-02-26T13:11:19;1.10;;;0.60;;
35590;SDS011;30355;50.556;10.012;2024-02-26T13:21:22;1.90;;;0.60;;
35590;SDS011;30355;50.556;10.012;2024-02-26T13:31:25;1.00;;;0.65;;
35590;SDS011;30355;50.556;10.012;2024-02-26T13:41:27;1.08;;;0.70;;
35590;SDS011;30355;50.556;10.012;2024-02-26T13:51:29;1.00;;;0.63;;
35590;SDS011;30355;50.556;10.012;2024-02-26T14:01:36;1.15;;;0.75;;
35590;SDS011;30355;50.556;10.012;2024-02-26T14:11:38;0.88;;;0.43;;
35590;SDS011;30355;50.556;10.012;2024-02-26T14:21:41;0.60;;;0.50;;
35590;SDS011;30355;50.556;10.012;2024-02-26T14:31:43;1.80;;;0.40;;
35590;SDS011;30355;50.556;10.012;2024-02-26T14:41:48;1.05;;;0.70;;
35590;SDS011;30355;50.556;10.012;2024-02-26T14:51:49;1.33;;;0.70;;
35590;SDS011;30355;50.556;10.012;2024-02-26T15:01:52;2.20;;;0.90;;
35590;SDS011;30355;50.556;10.012;2024-02-26T15:11:54;0.60;;;0.40;;
35590;SDS011;30355;50.556;10.012;2024-02-26T15:21:56;1.00;;;0.60;;
35590;SDS011;30355;50.556;10.012;2024-02-26T15:31:58;1.45;;;0.60;;
35590;SDS011;30355;50.556;10.012;2024-02-26T15:42:00;1.27;;;0.65;;
35590;SDS011;30355;50.556;10.012;2024-02-26T15:52:04;2.45;;;0.80;;
35590;SDS011;30355;50.556;10.012;2024-02-26T16:02:06;0.95;;;0.50;;
35590;SDS011;30355;50.556;10.012;2024-02-26T16:12:09;0.65;;;0.40;;
35590;SDS011;30355;50.556;10.012;2024-02-26T16:22:17;2.78;;;1.35;;
35590;SDS011;30355;50.556;10.012;2024-02-26T16:32:19;2.85;;;1.75;;
35590;SDS011;30355;50.556;10.012;2024-02-26T16:42:23;2.63;;;1.98;;
35590;SDS011;30355;50.556;10.012;2024-02-26T16:52:25;10.48;;;6.03;;
35590;SDS011;30355;50.556;10.012;2024-02-26T17:02:27;4.45;;;3.03;;
35590;SDS011;30355;50.556;10.012;2024-02-26T17:12:29;4.30;;;3.00;;
35590;SDS011;30355;50.556;10.012;2024-02-26T17:22:31;4.45;;;2.67;;
35590;SDS011;30355;50.556;10.012;2024-02-26T17:32:33;2.33;;;1.80;;
35590;SDS011;30355;50.556;10.012;2024-02-26T17:42:36;3.85;;;2.85;;
35590;SDS011;30355;50.556;10.012;2024-02-26T17:52:38;2.85;;;2.13;;
35590;SDS011;30355;50.556;10.012;2024-02-26T18:02:40;4.13;;;2.88;;
35590;SDS011;30355;50.556;10.012;2024-02-26T18:12:44;5.65;;;2.70;;
35590;SDS011;30355;50.556;10.012;2024-02-26T18:22:46;4.85;;;3.22;;
35590;SDS011;30355;50.556;10.012;2024-02-26T18:32:48;5.65;;;3.60;;
35590;SDS011;30355;50.556;10.012;2024-02-26T18:42:53;5.10;;;4.03;;
35590;SDS011;30355;50.556;10.012;2024-02-26T18:52:55;6.93;;;4.47;;
35590;SDS011;30355;50.556;10.012;2024-02-26T19:03:03;7.45;;;4.38;;
35590;SDS011;30355;50.556;10.012;2024-02-26T19:13:06;6.97;;;4.97;;
35590;SDS011;30355;50.556;10.012;2024-02-26T19:23:10;8.02;;;4.55;;
35590;SDS011;30355;50.556;10.012;2024-02-26T19:33:15;7.93;;;5.90;;
35590;SDS011;30355;50.556;10.012;2024-02-26T19:43:18;7.35;;;5.13;;
35590;SDS011;30355;50.556;10.012;2024-02-26T19:53:20;9.00;;;6.32;;
35590;SDS011;30355;50.556;10.012;2024-02-26T20:03:22;8.45;;;6.15;;
35590;SDS011;30355;50.556;10.012;2024-02-26T20:13:24;9.15;;;6.25;;
35590;SDS011;30355;50.556;10.012;2024-02-26T20:23:29;9.75;;;6.45;;
35590;SDS011;30355;50.556;10.012;2024-02-26T20:33:31;9.65;;;6.50;;
35590;SDS011;30355;50.556;10.012;2024-02-26T20:43:34;7.07;;;5.55;;
35590;SDS011;30355;50.556;10.012;2024-02-26T20:53:36;8.13;;;6.35;;
35590;SDS011;30355;50.556;10.012;2024-02-26T21:03:39;10.00;;;7.07;;
35590;SDS011;30355;50.556;10.012;2024-02-26T21:13:41;9.52;;;6.50;;
35590;SDS011;30355;50.556;10.012;2024-02-26T21:23:45;11.18;;;7.47;;
35590;SDS011;30355;50.556;10.012;2024-02-26T21:33:47;9.30;;;6.68;;
35590;SDS011;30355;50.556;10.012;2024-02-26T21:43:49;11.18;;;7.40;;
35590;SDS011;30355;50.556;10.012;2024-02-26T21:53:52;9.50;;;6.22;;
35590;SDS011;30355;50.556;10.012;2024-02-26T22:03:55;7.78;;;5.45;;
35590;SDS011;30355;50.556;10.012;2024-02-26T22:13:57;9.23;;;5.82;;
35590;SDS011;30355;50.556;10.012;2024-02-26T22:24:01;9.82;;;6.47;;
35590;SDS011;30355;50.556;10.012;2024-02-26T22:34:07;7.53;;;5.07;;
35590;SDS011;30355;50.556;10.012;2024-02-26T22:44:09;6.78;;;5.20;;
35590;SDS011;30355;50.556;10.012;2024-02-26T22:54:12;7.97;;;5.32;;
35590;SDS011;30355;50.556;10.012;2024-02-26T23:04:14;7.07;;;5.57;;
35590;SDS011;30355;50.556;10.012;2024-02-26T23:14:16;6.07;;;4.55;;
35590;SDS011;30355;50.556;10.012;2024-02-26T23:24:18;7.82;;;6.15;;
35590;SDS011;30355;50.556;10.012;2024-02-26T23:34:20;8.50;;;6.10;;
35590;SDS011;30355;50.556;10.012;2024-02-26T23:44:22;8.48;;;6.63;;
35590;SDS011;30355;50.556;10.012;2024-02-26T23:54:25;6.80;;;5.07;;
